sensor_id;sensor_type;location;lat;lon;timestamp;P1;durP1;ratioP1;P2;durP2;ratioP2
5841;SDS011;2947;52.276;9.946;2023-05-07T00:00:36;33.13;;;20.70;;
5841;SDS011;2947;52.276;9.946;2023-05-07T00:03:02;33.77;;;19.67;;
5841;SDS011;2947;52.276;9.946;2023-05-07T00:05:28;31.63;;;19.50;;
5841;SDS011;2947;52.276;9.946;2023-05-07T00:07:54;34.27;;;19.20;;
5841;SDS011;2947;52.276;9.946;2023-05-07T00:10:20;34.10;;;20.50;;
5841;SDS011;2947;52.276;9.946;2023-05-07T00:12:46;36.60;;;18.30;;
5841;SDS011;2947;52.276;9.946;2023-05-07T00:15:11;32.03;;;19.33;;
5841;SDS011;2947;52.276;9.946;2023-05-07T00:17:37;34.00;;;18.83;;
5841;SDS011;2947;52.276;9.946;2023-05-07T00:20:03;32.30;;;19.37;;
5841;SDS011;2947;52.276;9.946;2023-05-07T00:22:30;39.40;;;21.00;;
5841;SDS011;2947;52.276;9.946;2023-05-07T00:24:57;34.73;;;19.13;;
5841;SDS011;2947;52.276;9.946;2023-05-07T00:27:24;39.60;;;21.73;;
5841;SDS011;2947;52.276;9.946;2023-05-07T00:29:50;41.97;;;23.00;;
5841;SDS011;2947;52.276;9.946;2023-05-07T00:32:16;37.73;;;18.67;;
5841;SDS011;2947;52.276;9.946;2023-05-07T00:34:42;34.50;;;19.47;;
5841;SDS011;2947;52.276;9.946;2023-05-07T00:37:08;31.53;;;17.40;;
5841;SDS011;2947;52.276;9.946;2023-05-07T00:39:34;37.37;;;19.20;;
5841;SDS011;2947;52.276;9.946;2023-05-07T00:42:00;35.47;;;20.07;;
5841;SDS011;2947;52.276;9.946;2023-05-07T00:44:27;36.83;;;20.20;;
5841;SDS011;2947;52.276;9.946;2023-05-07T00:46:54;39.10;;;20.57;;
5841;SDS011;2947;52.276;9.946;2023-05-07T00:49:22;37.13;;;19.87;;
5841;SDS011;2947;52.276;9.946;2023-05-07T00:52:01;38.33;;;19.37;;
5841;SDS011;2947;52.276;9.946;2023-05-07T00:54:26;43.90;;;20.23;;
5841;SDS011;2947;52.276;9.946;2023-05-07T00:56:53;39.27;;;21.87;;
5841;SDS011;2947;52.276;9.946;2023-05-07T00:59:19;32.47;;;18.40;;
5841;SDS011;2947;52.276;9.946;2023-05-07T01:01:45;35.03;;;19.13;;
5841;SDS011;2947;52.276;9.946;2023-05-07T01:04:11;36.50;;;19.30;;
5841;SDS011;2947;52.276;9.946;2023-05-07T01:06:36;36.30;;;19.10;;
5841;SDS011;2947;52.276;9.946;2023-05-07T01:09:03;34.60;;;20.60;;
5841;SDS011;2947;52.276;9.946;2023-05-07T01:11:30;35.27;;;17.77;;
5841;SDS011;2947;52.276;9.946;2023-05-07T01:13:56;33.83;;;17.60;;
5841;SDS011;2947;52.276;9.946;2023-05-07T01:16:24;36.97;;;17.93;;
5841;SDS011;2947;52.276;9.946;2023-05-07T01:18:50;33.57;;;17.87;;
5841;SDS011;2947;52.276;9.946;2023-05-07T01:21:16;29.70;;;16.20;;
5841;SDS011;2947;52.276;9.946;2023-05-07T01:23:43;32.13;;;17.67;;
5841;SDS011;2947;52.276;9.946;2023-05-07T01:26:10;27.77;;;16.07;;
5841;SDS011;2947;52.276;9.946;2023-05-07T01:28:35;34.50;;;15.90;;
5841;SDS011;2947;52.276;9.946;2023-05-07T01:31:02;29.67;;;15.73;;
5841;SDS011;2947;52.276;9.946;2023-05-07T01:33:29;27.47;;;15.07;;
5841;SDS011;2947;52.276;9.946;2023-05-07T01:36:00;27.27;;;14.33;;
5841;SDS011;2947;52.276;9.946;2023-05-07T01:38:28;29.33;;;13.70;;
5841;SDS011;2947;52.276;9.946;2023-05-07T01:40:55;20.50;;;9.70;;
5841;SDS011;2947;52.276;9.946;2023-05-07T01:43:21;24.47;;;12.50;;
5841;SDS011;2947;52.276;9.946;2023-05-07T01:45:47;23.27;;;11.80;;
5841;SDS011;2947;52.276;9.946;2023-05-07T01:48:14;21.30;;;11.13;;
5841;SDS011;2947;52.276;9.946;2023-05-07T01:50:41;24.40;;;12.00;;
5841;SDS011;2947;52.276;9.946;2023-05-07T01:53:08;18.67;;;10.87;;
5841;SDS011;2947;52.276;9.946;2023-05-07T01:55:33;20.13;;;10.40;;
5841;SDS011;2947;52.276;9.946;2023-05-07T01:58:01;19.20;;;10.03;;
5841;SDS011;2947;52.276;9.946;2023-05-07T02:00:28;21.63;;;10.20;;
5841;SDS011;2947;52.276;9.946;2023-05-07T02:02:53;20.93;;;10.60;;
5841;SDS011;2947;52.276;9.946;2023-05-07T02:05:19;15.77;;;10.07;;
5841;SDS011;2947;52.276;9.946;2023-05-07T02:07:45;19.77;;;9.20;;
5841;SDS011;2947;52.276;9.946;2023-05-07T02:10:11;21.07;;;10.23;;
5841;SDS011;2947;52.276;9.946;2023-05-07T02:12:36;16.00;;;10.03;;
5841;SDS011;2947;52.276;9.946;2023-05-07T02:15:02;18.10;;;9.37;;
5841;SDS011;2947;52.276;9.946;2023-05-07T02:17:28;16.20;;;10.50;;
5841;SDS011;2947;52.276;9.946;2023-05-07T02:19:56;16.03;;;9.83;;
5841;SDS011;2947;52.276;9.946;2023-05-07T02:22:22;17.20;;;10.50;;
5841;SDS011;2947;52.276;9.946;2023-05-07T02:24:48;21.63;;;10.67;;
5841;SDS011;2947;52.276;9.946;2023-05-07T02:27:14;17.23;;;11.00;;
5841;SDS011;2947;52.276;9.946;2023-05-07T02:29:39;20.20;;;12.00;;
5841;SDS011;2947;52.276;9.946;2023-05-07T02:32:05;17.73;;;10.50;;
5841;SDS011;2947;52.276;9.946;2023-05-07T02:34:31;20.20;;;11.97;;
5841;SDS011;2947;52.276;9.946;2023-05-07T02:36:57;24.20;;;12.90;;
5841;SDS011;2947;52.276;9.946;2023-05-07T02:39:22;22.13;;;11.33;;
5841;SDS011;2947;52.276;9.946;2023-05-07T02:41:48;19.03;;;12.30;;
5841;SDS011;2947;52.276;9.946;2023-05-07T02:44:14;25.33;;;12.60;;
5841;SDS011;2947;52.276;9.946;2023-05-07T02:46:39;21.37;;;12.97;;
5841;SDS011;2947;52.276;9.946;2023-05-07T02:49:05;19.37;;;11.50;;
5841;SDS011;2947;52.276;9.946;2023-05-07T02:51:31;23.20;;;12.43;;
5841;SDS011;2947;52.276;9.946;2023-05-07T02:53:57;22.83;;;11.97;;
5841;SDS011;2947;52.276;9.946;2023-05-07T02:56:22;21.20;;;12.57;;
5841;SDS011;2947;52.276;9.946;2023-05-07T02:58:51;19.70;;;11.57;;
5841;SDS011;2947;52.276;9.946;2023-05-07T03:01:17;20.53;;;11.63;;
5841;SDS011;2947;52.276;9.946;2023-05-07T03:03:42;20.37;;;11.73;;
5841;SDS011;2947;52.276;9.946;2023-05-07T03:06:09;20.97;;;11.10;;
5841;SDS011;2947;52.276;9.946;2023-05-07T03:08:35;21.40;;;12.47;;
5841;SDS011;2947;52.276;9.946;2023-05-07T03:11:01;22.17;;;10.70;;
5841;SDS011;2947;52.276;9.946;2023-05-07T03:13:27;20.43;;;11.47;;
5841;SDS011;2947;52.276;9.946;2023-05-07T03:15:53;16.70;;;10.70;;
5841;SDS011;2947;52.276;9.946;2023-05-07T03:18:18;20.00;;;11.23;;
5841;SDS011;2947;52.276;9.946;2023-05-07T03:20:44;17.87;;;9.60;;
5841;SDS011;2947;52.276;9.946;2023-05-07T03:23:10;16.47;;;10.97;;
5841;SDS011;2947;52.276;9.946;2023-05-07T03:25:35;17.20;;;11.00;;
5841;SDS011;2947;52.276;9.946;2023-05-07T03:28:01;20.50;;;10.33;;
5841;SDS011;2947;52.276;9.946;2023-05-07T03:30:27;16.10;;;10.23;;
5841;SDS011;2947;52.276;9.946;2023-05-07T03:32:52;18.23;;;9.90;;
5841;SDS011;2947;52.276;9.946;2023-05-07T03:35:18;20.43;;;10.33;;
5841;SDS011;2947;52.276;9.946;2023-05-07T03:37:44;17.87;;;10.40;;
5841;SDS011;2947;52.276;9.946;2023-05-07T03:40:10;22.57;;;10.77;;
5841;SDS011;2947;52.276;9.946;2023-05-07T03:42:37;17.77;;;10.90;;
5841;SDS011;2947;52.276;9.946;2023-05-07T03:45:02;18.87;;;10.57;;
5841;SDS011;2947;52.276;9.946;2023-05-07T03:47:28;16.83;;;9.73;;
5841;SDS011;2947;52.276;9.946;2023-05-07T03:49:55;15.53;;;9.70;;
5841;SDS011;2947;52.276;9.946;2023-05-07T03:52:20;13.47;;;9.20;;
5841;SDS011;2947;52.276;9.946;2023-05-07T03:54:50;16.90;;;10.83;;
5841;SDS011;2947;52.276;9.946;2023-05-07T03:57:17;18.07;;;10.47;;
5841;SDS011;2947;52.276;9.946;2023-05-07T03:59:43;20.17;;;10.73;;
5841;SDS011;2947;52.276;9.946;2023-05-07T04:02:08;20.60;;;11.00;;
5841;SDS011;2947;52.276;9.946;2023-05-07T04:04:34;24.40;;;11.07;;
5841;SDS011;2947;52.276;9.946;2023-05-07T04:07:00;17.50;;;10.50;;
5841;SDS011;2947;52.276;9.946;2023-05-07T04:09:26;21.90;;;11.47;;
5841;SDS011;2947;52.276;9.946;2023-05-07T04:11:51;17.07;;;10.00;;
5841;SDS011;2947;52.276;9.946;2023-05-07T04:14:17;22.70;;;11.53;;
5841;SDS011;2947;52.276;9.946;2023-05-07T04:16:43;18.07;;;10.43;;
5841;SDS011;2947;52.276;9.946;2023-05-07T04:19:08;18.03;;;9.93;;
5841;SDS011;2947;52.276;9.946;2023-05-07T04:21:34;15.07;;;8.90;;
5841;SDS011;2947;52.276;9.946;2023-05-07T04:24:00;18.37;;;11.20;;
5841;SDS011;2947;52.276;9.946;2023-05-07T04:26:27;18.43;;;10.50;;
5841;SDS011;2947;52.276;9.946;2023-05-07T04:28:53;21.73;;;10.90;;
5841;SDS011;2947;52.276;9.946;2023-05-07T04:31:18;20.67;;;11.80;;
5841;SDS011;2947;52.276;9.946;2023-05-07T04:33:44;16.67;;;10.53;;
5841;SDS011;2947;52.276;9.946;2023-05-07T04:36:10;19.80;;;11.70;;
5841;SDS011;2947;52.276;9.946;2023-05-07T04:38:36;18.50;;;10.73;;
5841;SDS011;2947;52.276;9.946;2023-05-07T04:41:03;17.50;;;12.27;;
5841;SDS011;2947;52.276;9.946;2023-05-07T04:43:31;19.43;;;11.67;;
5841;SDS011;2947;52.276;9.946;2023-05-07T04:45:57;20.13;;;11.37;;
5841;SDS011;2947;52.276;9.946;2023-05-07T04:48:23;21.33;;;11.80;;
5841;SDS011;2947;52.276;9.946;2023-05-07T04:50:49;22.13;;;11.70;;
5841;SDS011;2947;52.276;9.946;2023-05-07T04:53:15;18.17;;;11.33;;
5841;SDS011;2947;52.276;9.946;2023-05-07T04:55:42;20.30;;;11.00;;
5841;SDS011;2947;52.276;9.946;2023-05-07T04:58:08;17.47;;;11.50;;
5841;SDS011;2947;52.276;9.946;2023-05-07T05:00:34;19.17;;;11.90;;
5841;SDS011;2947;52.276;9.946;2023-05-07T05:03:00;19.57;;;11.33;;
5841;SDS011;2947;52.276;9.946;2023-05-07T05:05:26;19.40;;;9.73;;
5841;SDS011;2947;52.276;9.946;2023-05-07T05:07:52;18.43;;;10.80;;
5841;SDS011;2947;52.276;9.946;2023-05-07T05:10:17;17.53;;;9.03;;
5841;SDS011;2947;52.276;9.946;2023-05-07T05:12:43;16.67;;;10.20;;
5841;SDS011;2947;52.276;9.946;2023-05-07T05:15:11;16.13;;;9.83;;
5841;SDS011;2947;52.276;9.946;2023-05-07T05:17:37;18.30;;;11.10;;
5841;SDS011;2947;52.276;9.946;2023-05-07T05:20:03;17.73;;;10.33;;
5841;SDS011;2947;52.276;9.946;2023-05-07T05:22:30;18.00;;;10.40;;
5841;SDS011;2947;52.276;9.946;2023-05-07T05:24:57;14.00;;;8.80;;
5841;SDS011;2947;52.276;9.946;2023-05-07T05:27:23;18.13;;;9.57;;
5841;SDS011;2947;52.276;9.946;2023-05-07T05:29:49;16.70;;;10.30;;
5841;SDS011;2947;52.276;9.946;2023-05-07T05:32:15;16.10;;;9.10;;
5841;SDS011;2947;52.276;9.946;2023-05-07T05:34:40;13.40;;;8.70;;
5841;SDS011;2947;52.276;9.946;2023-05-07T05:37:06;13.40;;;8.43;;
5841;SDS011;2947;52.276;9.946;2023-05-07T05:39:32;14.70;;;8.93;;
5841;SDS011;2947;52.276;9.946;2023-05-07T05:41:58;14.70;;;9.03;;
5841;SDS011;2947;52.276;9.946;2023-05-07T05:44:23;12.50;;;7.97;;
5841;SDS011;2947;52.276;9.946;2023-05-07T05:46:50;14.97;;;9.13;;
5841;SDS011;2947;52.276;9.946;2023-05-07T05:49:15;12.80;;;8.07;;
5841;SDS011;2947;52.276;9.946;2023-05-07T05:51:41;16.23;;;9.03;;
5841;SDS011;2947;52.276;9.946;2023-05-07T05:54:08;16.20;;;9.27;;
5841;SDS011;2947;52.276;9.946;2023-05-07T05:56:34;14.03;;;10.10;;
5841;SDS011;2947;52.276;9.946;2023-05-07T05:58:59;15.33;;;9.20;;
5841;SDS011;2947;52.276;9.946;2023-05-07T06:01:25;13.60;;;7.90;;
5841;SDS011;2947;52.276;9.946;2023-05-07T06:03:51;12.00;;;8.13;;
5841;SDS011;2947;52.276;9.946;2023-05-07T06:06:17;14.00;;;9.10;;
5841;SDS011;2947;52.276;9.946;2023-05-07T06:08:43;15.60;;;10.33;;
5841;SDS011;2947;52.276;9.946;2023-05-07T06:11:08;13.67;;;8.23;;
5841;SDS011;2947;52.276;9.946;2023-05-07T06:13:34;7.67;;;5.03;;
5841;SDS011;2947;52.276;9.946;2023-05-07T06:16:00;13.60;;;8.40;;
5841;SDS011;2947;52.276;9.946;2023-05-07T06:18:25;11.43;;;8.47;;
5841;SDS011;2947;52.276;9.946;2023-05-07T06:20:51;12.47;;;8.37;;
5841;SDS011;2947;52.276;9.946;2023-05-07T06:23:17;13.50;;;9.20;;
5841;SDS011;2947;52.276;9.946;2023-05-07T06:25:49;13.10;;;8.77;;
5841;SDS011;2947;52.276;9.946;2023-05-07T06:28:16;12.70;;;7.93;;
5841;SDS011;2947;52.276;9.946;2023-05-07T06:30:42;12.80;;;7.30;;
5841;SDS011;2947;52.276;9.946;2023-05-07T06:33:08;13.77;;;7.70;;
5841;SDS011;2947;52.276;9.946;2023-05-07T06:35:33;12.87;;;8.10;;
5841;SDS011;2947;52.276;9.946;2023-05-07T06:37:59;12.00;;;8.33;;
5841;SDS011;2947;52.276;9.946;2023-05-07T06:40:25;13.73;;;8.60;;
5841;SDS011;2947;52.276;9.946;2023-05-07T06:42:52;15.07;;;8.30;;
5841;SDS011;2947;52.276;9.946;2023-05-07T06:45:18;13.77;;;9.27;;
5841;SDS011;2947;52.276;9.946;2023-05-07T06:47:45;15.43;;;10.07;;
5841;SDS011;2947;52.276;9.946;2023-05-07T06:50:11;16.33;;;10.20;;
5841;SDS011;2947;52.276;9.946;2023-05-07T06:52:37;16.80;;;11.97;;
5841;SDS011;2947;52.276;9.946;2023-05-07T06:55:02;16.63;;;11.30;;
5841;SDS011;2947;52.276;9.946;2023-05-07T06:57:29;21.90;;;11.87;;
5841;SDS011;2947;52.276;9.946;2023-05-07T06:59:54;15.17;;;11.70;;
5841;SDS011;2947;52.276;9.946;2023-05-07T07:02:20;19.70;;;11.90;;
5841;SDS011;2947;52.276;9.946;2023-05-07T07:04:46;19.53;;;11.33;;
5841;SDS011;2947;52.276;9.946;2023-05-07T07:07:12;16.50;;;11.03;;
5841;SDS011;2947;52.276;9.946;2023-05-07T07:09:37;16.53;;;11.30;;
5841;SDS011;2947;52.276;9.946;2023-05-07T07:12:03;18.00;;;11.83;;
5841;SDS011;2947;52.276;9.946;2023-05-07T07:14:29;17.70;;;12.33;;
5841;SDS011;2947;52.276;9.946;2023-05-07T07:16:55;24.30;;;12.43;;
5841;SDS011;2947;52.276;9.946;2023-05-07T07:19:20;15.60;;;10.93;;
5841;SDS011;2947;52.276;9.946;2023-05-07T07:21:46;16.80;;;11.90;;
5841;SDS011;2947;52.276;9.946;2023-05-07T07:24:12;16.90;;;11.73;;
5841;SDS011;2947;52.276;9.946;2023-05-07T07:26:44;17.27;;;11.83;;
5841;SDS011;2947;52.276;9.946;2023-05-07T07:29:09;17.77;;;12.40;;
5841;SDS011;2947;52.276;9.946;2023-05-07T07:31:35;18.83;;;12.77;;
5841;SDS011;2947;52.276;9.946;2023-05-07T07:34:01;21.73;;;13.10;;
5841;SDS011;2947;52.276;9.946;2023-05-07T07:36:26;16.07;;;11.60;;
5841;SDS011;2947;52.276;9.946;2023-05-07T07:38:53;15.43;;;10.57;;
5841;SDS011;2947;52.276;9.946;2023-05-07T07:41:19;17.60;;;13.07;;
5841;SDS011;2947;52.276;9.946;2023-05-07T07:43:48;19.87;;;13.03;;
5841;SDS011;2947;52.276;9.946;2023-05-07T07:46:13;17.00;;;11.80;;
5841;SDS011;2947;52.276;9.946;2023-05-07T07:48:39;17.73;;;13.27;;
5841;SDS011;2947;52.276;9.946;2023-05-07T07:51:05;18.03;;;12.77;;
5841;SDS011;2947;52.276;9.946;2023-05-07T07:53:31;18.97;;;13.33;;
5841;SDS011;2947;52.276;9.946;2023-05-07T07:55:57;20.90;;;12.80;;
5841;SDS011;2947;52.276;9.946;2023-05-07T07:58:22;20.23;;;14.83;;
5841;SDS011;2947;52.276;9.946;2023-05-07T08:00:49;16.47;;;12.10;;
5841;SDS011;2947;52.276;9.946;2023-05-07T08:03:16;21.90;;;15.13;;
5841;SDS011;2947;52.276;9.946;2023-05-07T08:05:41;19.90;;;13.20;;
5841;SDS011;2947;52.276;9.946;2023-05-07T08:08:08;16.03;;;10.70;;
5841;SDS011;2947;52.276;9.946;2023-05-07T08:10:34;17.17;;;11.40;;
5841;SDS011;2947;52.276;9.946;2023-05-07T08:13:03;16.87;;;13.27;;
5841;SDS011;2947;52.276;9.946;2023-05-07T08:15:29;20.47;;;15.13;;
5841;SDS011;2947;52.276;9.946;2023-05-07T08:17:55;27.33;;;16.50;;
5841;SDS011;2947;52.276;9.946;2023-05-07T08:20:22;20.73;;;16.10;;
5841;SDS011;2947;52.276;9.946;2023-05-07T08:22:48;22.47;;;16.00;;
5841;SDS011;2947;52.276;9.946;2023-05-07T08:25:14;17.87;;;14.00;;
5841;SDS011;2947;52.276;9.946;2023-05-07T08:27:40;23.23;;;15.63;;
5841;SDS011;2947;52.276;9.946;2023-05-07T08:30:06;18.27;;;13.13;;
5841;SDS011;2947;52.276;9.946;2023-05-07T08:32:35;19.00;;;12.37;;
5841;SDS011;2947;52.276;9.946;2023-05-07T08:35:01;18.90;;;13.80;;
5841;SDS011;2947;52.276;9.946;2023-05-07T08:37:27;20.77;;;13.70;;
5841;SDS011;2947;52.276;9.946;2023-05-07T08:39:53;19.90;;;14.30;;
5841;SDS011;2947;52.276;9.946;2023-05-07T08:42:19;23.80;;;14.70;;
5841;SDS011;2947;52.276;9.946;2023-05-07T08:44:48;17.60;;;12.57;;
5841;SDS011;2947;52.276;9.946;2023-05-07T08:47:18;19.27;;;12.43;;
5841;SDS011;2947;52.276;9.946;2023-05-07T08:49:44;19.10;;;12.47;;
5841;SDS011;2947;52.276;9.946;2023-05-07T08:52:11;18.33;;;12.30;;
5841;SDS011;2947;52.276;9.946;2023-05-07T08:54:37;19.33;;;12.00;;
5841;SDS011;2947;52.276;9.946;2023-05-07T08:57:04;15.10;;;10.77;;
5841;SDS011;2947;52.276;9.946;2023-05-07T08:59:29;18.97;;;10.60;;
5841;SDS011;2947;52.276;9.946;2023-05-07T09:01:55;18.50;;;10.20;;
5841;SDS011;2947;52.276;9.946;2023-05-07T09:04:21;19.53;;;11.37;;
5841;SDS011;2947;52.276;9.946;2023-05-07T09:06:47;16.33;;;10.67;;
5841;SDS011;2947;52.276;9.946;2023-05-07T09:09:16;15.30;;;9.93;;
5841;SDS011;2947;52.276;9.946;2023-05-07T09:11:43;16.33;;;10.60;;
5841;SDS011;2947;52.276;9.946;2023-05-07T09:14:09;14.13;;;10.50;;
5841;SDS011;2947;52.276;9.946;2023-05-07T09:16:35;16.13;;;11.27;;
5841;SDS011;2947;52.276;9.946;2023-05-07T09:19:00;17.83;;;12.73;;
5841;SDS011;2947;52.276;9.946;2023-05-07T09:21:27;16.20;;;11.77;;
5841;SDS011;2947;52.276;9.946;2023-05-07T09:23:53;13.60;;;9.93;;
5841;SDS011;2947;52.276;9.946;2023-05-07T09:26:23;18.40;;;12.50;;
5841;SDS011;2947;52.276;9.946;2023-05-07T09:28:50;17.60;;;11.17;;
5841;SDS011;2947;52.276;9.946;2023-05-07T09:31:16;13.57;;;9.00;;
5841;SDS011;2947;52.276;9.946;2023-05-07T09:33:42;14.93;;;10.47;;
5841;SDS011;2947;52.276;9.946;2023-05-07T09:36:08;16.03;;;10.70;;
5841;SDS011;2947;52.276;9.946;2023-05-07T09:38:35;15.83;;;11.13;;
5841;SDS011;2947;52.276;9.946;2023-05-07T09:43:36;16.10;;;11.17;;
5841;SDS011;2947;52.276;9.946;2023-05-07T09:46:08;17.33;;;13.10;;
5841;SDS011;2947;52.276;9.946;2023-05-07T09:48:39;18.43;;;12.97;;
5841;SDS011;2947;52.276;9.946;2023-05-07T09:53:54;22.90;;;13.13;;
5841;SDS011;2947;52.276;9.946;2023-05-07T09:56:21;18.70;;;11.23;;
5841;SDS011;2947;52.276;9.946;2023-05-07T09:58:48;16.50;;;11.50;;
5841;SDS011;2947;52.276;9.946;2023-05-07T10:01:16;18.30;;;12.07;;
5841;SDS011;2947;52.276;9.946;2023-05-07T10:03:44;15.73;;;11.27;;
5841;SDS011;2947;52.276;9.946;2023-05-07T10:06:11;18.50;;;12.10;;
5841;SDS011;2947;52.276;9.946;2023-05-07T10:08:39;15.40;;;11.00;;
5841;SDS011;2947;52.276;9.946;2023-05-07T10:11:06;17.23;;;11.10;;
5841;SDS011;2947;52.276;9.946;2023-05-07T10:13:32;15.10;;;10.77;;
5841;SDS011;2947;52.276;9.946;2023-05-07T10:16:02;17.13;;;11.13;;
5841;SDS011;2947;52.276;9.946;2023-05-07T10:18:31;16.77;;;11.03;;
5841;SDS011;2947;52.276;9.946;2023-05-07T10:21:07;14.25;;;9.95;;
5841;SDS011;2947;52.276;9.946;2023-05-07T10:23:39;19.67;;;10.73;;
5841;SDS011;2947;52.276;9.946;2023-05-07T10:26:06;14.83;;;10.80;;
5841;SDS011;2947;52.276;9.946;2023-05-07T10:28:34;12.15;;;9.98;;
5841;SDS011;2947;52.276;9.946;2023-05-07T10:34:01;17.13;;;10.75;;
5841;SDS011;2947;52.276;9.946;2023-05-07T10:36:33;12.48;;;10.07;;
5841;SDS011;2947;52.276;9.946;2023-05-07T10:38:59;14.30;;;9.50;;
5841;SDS011;2947;52.276;9.946;2023-05-07T10:41:25;16.17;;;9.77;;
5841;SDS011;2947;52.276;9.946;2023-05-07T10:43:51;13.25;;;9.48;;
5841;SDS011;2947;52.276;9.946;2023-05-07T10:46:17;10.32;;;8.32;;
5841;SDS011;2947;52.276;9.946;2023-05-07T10:51:26;11.30;;;8.13;;
5841;SDS011;2947;52.276;9.946;2023-05-07T10:56:40;12.27;;;7.60;;
5841;SDS011;2947;52.276;9.946;2023-05-07T11:01:59;15.52;;;9.85;;
5841;SDS011;2947;52.276;9.946;2023-05-07T11:04:29;13.88;;;9.93;;
5841;SDS011;2947;52.276;9.946;2023-05-07T11:12:16;14.73;;;9.30;;
5841;SDS011;2947;52.276;9.946;2023-05-07T11:15:48;11.32;;;8.18;;
5841;SDS011;2947;52.276;9.946;2023-05-07T11:18:08;12.55;;;8.80;;
5841;SDS011;2947;52.276;9.946;2023-05-07T11:20:47;10.23;;;7.18;;
5841;SDS011;2947;52.276;9.946;2023-05-07T11:26:02;10.63;;;7.90;;
5841;SDS011;2947;52.276;9.946;2023-05-07T11:28:30;12.60;;;8.35;;
5841;SDS011;2947;52.276;9.946;2023-05-07T11:31:02;15.75;;;9.45;;
5841;SDS011;2947;52.276;9.946;2023-05-07T11:33:29;12.35;;;8.73;;
5841;SDS011;2947;52.276;9.946;2023-05-07T11:35:56;10.25;;;7.95;;
5841;SDS011;2947;52.276;9.946;2023-05-07T11:38:22;16.90;;;8.50;;
5841;SDS011;2947;52.276;9.946;2023-05-07T11:40:51;10.18;;;7.28;;
5841;SDS011;2947;52.276;9.946;2023-05-07T11:43:22;10.40;;;7.18;;
5841;SDS011;2947;52.276;9.946;2023-05-07T11:45:48;12.15;;;8.20;;
5841;SDS011;2947;52.276;9.946;2023-05-07T11:48:15;9.52;;;7.03;;
5841;SDS011;2947;52.276;9.946;2023-05-07T11:53:44;11.50;;;7.20;;
5841;SDS011;2947;52.276;9.946;2023-05-07T11:56:11;11.02;;;7.15;;
5841;SDS011;2947;52.276;9.946;2023-05-07T11:58:39;12.82;;;8.65;;
5841;SDS011;2947;52.276;9.946;2023-05-07T12:01:07;11.20;;;7.00;;
5841;SDS011;2947;52.276;9.946;2023-05-07T12:03:35;8.65;;;6.57;;
5841;SDS011;2947;52.276;9.946;2023-05-07T12:06:02;10.23;;;7.05;;
5841;SDS011;2947;52.276;9.946;2023-05-07T12:08:31;9.05;;;6.63;;
5841;SDS011;2947;52.276;9.946;2023-05-07T12:10:56;10.57;;;6.65;;
5841;SDS011;2947;52.276;9.946;2023-05-07T12:13:23;14.85;;;7.65;;
5841;SDS011;2947;52.276;9.946;2023-05-07T12:15:53;9.65;;;6.63;;
5841;SDS011;2947;52.276;9.946;2023-05-07T12:18:21;8.32;;;6.35;;
5841;SDS011;2947;52.276;9.946;2023-05-07T12:20:48;10.48;;;6.55;;
5841;SDS011;2947;52.276;9.946;2023-05-07T12:23:14;10.68;;;6.93;;
5841;SDS011;2947;52.276;9.946;2023-05-07T12:25:41;9.02;;;6.65;;
5841;SDS011;2947;52.276;9.946;2023-05-07T12:28:14;7.97;;;5.97;;
5841;SDS011;2947;52.276;9.946;2023-05-07T12:30:43;9.20;;;6.53;;
5841;SDS011;2947;52.276;9.946;2023-05-07T12:33:10;8.77;;;6.90;;
5841;SDS011;2947;52.276;9.946;2023-05-07T12:35:40;11.38;;;7.85;;
5841;SDS011;2947;52.276;9.946;2023-05-07T12:38:12;10.35;;;6.80;;
5841;SDS011;2947;52.276;9.946;2023-05-07T12:40:44;9.15;;;7.15;;
5841;SDS011;2947;52.276;9.946;2023-05-07T12:43:16;12.60;;;8.75;;
5841;SDS011;2947;52.276;9.946;2023-05-07T12:46:00;11.32;;;8.70;;
5841;SDS011;2947;52.276;9.946;2023-05-07T12:48:29;11.25;;;8.43;;
5841;SDS011;2947;52.276;9.946;2023-05-07T12:50:56;12.80;;;9.68;;
5841;SDS011;2947;52.276;9.946;2023-05-07T12:53:25;13.07;;;9.55;;
5841;SDS011;2947;52.276;9.946;2023-05-07T12:55:52;11.98;;;8.32;;
5841;SDS011;2947;52.276;9.946;2023-05-07T13:00:56;12.68;;;9.63;;
5841;SDS011;2947;52.276;9.946;2023-05-07T13:03:26;12.50;;;9.50;;
5841;SDS011;2947;52.276;9.946;2023-05-07T13:05:55;12.52;;;9.85;;
5841;SDS011;2947;52.276;9.946;2023-05-07T13:08:27;15.63;;;10.82;;
5841;SDS011;2947;52.276;9.946;2023-05-07T13:10:59;12.45;;;9.85;;
5841;SDS011;2947;52.276;9.946;2023-05-07T13:13:30;11.32;;;8.85;;
5841;SDS011;2947;52.276;9.946;2023-05-07T13:15:57;12.63;;;9.02;;
5841;SDS011;2947;52.276;9.946;2023-05-07T13:18:24;13.27;;;9.07;;
5841;SDS011;2947;52.276;9.946;2023-05-07T13:20:51;17.67;;;9.77;;
5841;SDS011;2947;52.276;9.946;2023-05-07T13:23:18;13.68;;;10.00;;
5841;SDS011;2947;52.276;9.946;2023-05-07T13:25:43;15.00;;;10.50;;
5841;SDS011;2947;52.276;9.946;2023-05-07T13:28:09;11.63;;;9.27;;
5841;SDS011;2947;52.276;9.946;2023-05-07T13:30:35;16.25;;;10.02;;
5841;SDS011;2947;52.276;9.946;2023-05-07T13:33:01;16.65;;;9.85;;
5841;SDS011;2947;52.276;9.946;2023-05-07T13:35:27;12.25;;;9.80;;
5841;SDS011;2947;52.276;9.946;2023-05-07T13:37:52;13.57;;;9.70;;
5841;SDS011;2947;52.276;9.946;2023-05-07T13:40:20;14.63;;;9.25;;
5841;SDS011;2947;52.276;9.946;2023-05-07T13:42:48;12.73;;;9.57;;
5841;SDS011;2947;52.276;9.946;2023-05-07T13:45:15;10.18;;;8.50;;
5841;SDS011;2947;52.276;9.946;2023-05-07T13:47:41;10.95;;;8.68;;
5841;SDS011;2947;52.276;9.946;2023-05-07T13:50:10;10.68;;;8.40;;
5841;SDS011;2947;52.276;9.946;2023-05-07T13:52:40;10.57;;;8.80;;
5841;SDS011;2947;52.276;9.946;2023-05-07T13:55:08;13.05;;;9.32;;
5841;SDS011;2947;52.276;9.946;2023-05-07T13:57:35;10.82;;;8.55;;
5841;SDS011;2947;52.276;9.946;2023-05-07T14:00:02;11.38;;;8.15;;
5841;SDS011;2947;52.276;9.946;2023-05-07T14:02:29;10.27;;;7.10;;
5841;SDS011;2947;52.276;9.946;2023-05-07T14:04:56;8.88;;;7.13;;
5841;SDS011;2947;52.276;9.946;2023-05-07T14:07:22;10.02;;;6.60;;
5841;SDS011;2947;52.276;9.946;2023-05-07T14:09:48;9.07;;;6.28;;
5841;SDS011;2947;52.276;9.946;2023-05-07T14:12:13;10.40;;;7.68;;
5841;SDS011;2947;52.276;9.946;2023-05-07T14:14:39;11.13;;;7.40;;
5841;SDS011;2947;52.276;9.946;2023-05-07T14:17:05;13.43;;;8.00;;
5841;SDS011;2947;52.276;9.946;2023-05-07T14:19:30;12.23;;;7.70;;
5841;SDS011;2947;52.276;9.946;2023-05-07T14:21:56;12.38;;;7.32;;
5841;SDS011;2947;52.276;9.946;2023-05-07T14:24:22;11.38;;;8.13;;
5841;SDS011;2947;52.276;9.946;2023-05-07T14:26:49;13.50;;;8.82;;
5841;SDS011;2947;52.276;9.946;2023-05-07T14:29:14;12.82;;;7.95;;
5841;SDS011;2947;52.276;9.946;2023-05-07T14:31:43;13.00;;;8.55;;
5841;SDS011;2947;52.276;9.946;2023-05-07T14:34:10;11.50;;;8.05;;
5841;SDS011;2947;52.276;9.946;2023-05-07T14:36:35;11.55;;;8.02;;
5841;SDS011;2947;52.276;9.946;2023-05-07T14:39:02;15.13;;;8.80;;
5841;SDS011;2947;52.276;9.946;2023-05-07T14:41:29;12.35;;;8.35;;
5841;SDS011;2947;52.276;9.946;2023-05-07T14:43:54;12.23;;;9.07;;
5841;SDS011;2947;52.276;9.946;2023-05-07T14:46:20;11.57;;;8.70;;
5841;SDS011;2947;52.276;9.946;2023-05-07T14:48:46;11.38;;;8.00;;
5841;SDS011;2947;52.276;9.946;2023-05-07T14:51:12;13.52;;;9.57;;
5841;SDS011;2947;52.276;9.946;2023-05-07T14:53:39;16.48;;;8.05;;
5841;SDS011;2947;52.276;9.946;2023-05-07T14:56:07;11.35;;;8.40;;
5841;SDS011;2947;52.276;9.946;2023-05-07T14:58:33;11.82;;;6.90;;
5841;SDS011;2947;52.276;9.946;2023-05-07T15:01:00;11.20;;;8.20;;
5841;SDS011;2947;52.276;9.946;2023-05-07T15:03:26;11.38;;;7.75;;
5841;SDS011;2947;52.276;9.946;2023-05-07T15:05:52;12.75;;;8.02;;
5841;SDS011;2947;52.276;9.946;2023-05-07T15:08:17;14.63;;;7.95;;
5841;SDS011;2947;52.276;9.946;2023-05-07T15:10:43;11.57;;;8.00;;
5841;SDS011;2947;52.276;9.946;2023-05-07T15:13:10;13.63;;;8.50;;
5841;SDS011;2947;52.276;9.946;2023-05-07T15:15:36;12.40;;;8.48;;
5841;SDS011;2947;52.276;9.946;2023-05-07T15:18:04;13.25;;;7.93;;
5841;SDS011;2947;52.276;9.946;2023-05-07T15:20:29;12.18;;;8.15;;